createdAt,value
2019-01-23T00:00:45.550Z,0.0
2019-01-23T00:03:29.132Z,0.0
2019-01-23T00:06:28.355Z,0.0
2019-01-23T00:09:29.046Z,0.0
2019-01-23T00:12:28.409Z,0.0
2019-01-23T00:15:28.951Z,0.0
2019-01-23T00:18:29.311Z,0.0
2019-01-23T00:21:29.438Z,0.0
2019-01-23T00:24:28.962Z,0.0
2019-01-23T00:27:28.411Z,0.0
2019-01-23T00:30:28.862Z,0.0
2019-01-23T00:33:28.456Z,0.0
2019-01-23T00:36:29.085Z,0.0
2019-01-23T00:39:28.539Z,0.0
2019-01-23T00:42:28.981Z,0.0
2019-01-23T00:45:28.476Z,0.0
2019-01-23T00:48:28.987Z,0.0
2019-01-23T00:51:28.599Z,0.0
2019-01-23T00:54:29.179Z,0.0
2019-01-23T00:57:28.499Z,0.0
2019-01-23T01:00:29.318Z,0.0
2019-01-23T01:03:28.974Z,0.0
2019-01-23T01:06:28.566Z,0.0
2019-01-23T01:09:29.352Z,0.0
2019-01-23T01:12:28.980Z,0.0
2019-01-23T01:15:28.824Z,0.0
2019-01-23T01:18:28.270Z,0.0
2019-01-23T01:21:29.228Z,0.0
2019-01-23T01:24:28.584Z,0.0
2019-01-23T01:27:28.483Z,0.0
2019-01-23T01:30:29.119Z,0.0
2019-01-23T01:33:28.350Z,0.0
2019-01-23T01:36:28.305Z,0.0
2019-01-23T01:39:29.028Z,0.0
2019-01-23T01:42:28.404Z,0.0
2019-01-23T01:45:29.156Z,0.0
2019-01-23T01:48:28.804Z,0.0
2019-01-23T01:51:28.081Z,0.0
2019-01-23T01:54:28.443Z,0.0
2019-01-23T01:57:29.193Z,0.0
2019-01-23T02:00:28.551Z,0.0
2019-01-23T02:03:30.336Z,0.0
2019-01-23T02:06:28.966Z,0.0
2019-01-23T02:09:28.318Z,0.0
2019-01-23T02:12:29.192Z,0.0
2019-01-23T02:15:28.528Z,0.0
2019-01-23T02:18:29.120Z,0.0
2019-01-23T02:21:28.540Z,0.0
2019-01-23T02:24:29.134Z,0.0
2019-01-23T02:27:28.689Z,0.0
2019-01-23T02:30:28.311Z,0.0
2019-01-23T02:33:28.855Z,0.0
2019-01-23T02:36:28.263Z,0.0
2019-01-23T02:39:28.626Z,0.0
2019-01-23T02:42:28.169Z,0.0
2019-01-23T02:45:28.680Z,0.0
2019-01-23T02:48:28.014Z,0.0
2019-01-23T02:51:28.411Z,0.0
2019-01-23T02:54:28.921Z,0.0
2019-01-23T02:57:28.474Z,0.0
2019-01-23T03:00:28.947Z,0.0
2019-01-23T03:03:28.393Z,0.0
2019-01-23T03:06:29.132Z,0.0
2019-01-23T03:09:28.412Z,0.0
2019-01-23T03:12:29.042Z,0.0
2019-01-23T03:15:28.516Z,0.0
2019-01-23T03:18:28.998Z,0.0
2019-01-23T03:21:28.368Z,0.0
2019-01-23T03:24:28.766Z,0.0
2019-01-23T03:27:28.186Z,0.0
2019-01-23T03:30:28.763Z,0.0
2019-01-23T03:33:28.113Z,0.0
2019-01-23T03:36:28.501Z,0.0
2019-01-23T03:39:29.125Z,0.0
2019-01-23T03:42:28.589Z,0.0
2019-01-23T03:45:28.069Z,0.0
2019-01-23T03:48:28.441Z,0.0
2019-01-23T03:51:29.169Z,0.0
2019-01-23T03:54:28.531Z,0.0
2019-01-23T03:57:29.293Z,0.0
2019-01-23T04:00:28.866Z,0.0
2019-01-23T04:03:28.621Z,0.0
2019-01-23T04:06:28.135Z,0.0
2019-01-23T04:09:28.753Z,0.0
2019-01-23T04:12:28.219Z,0.0
2019-01-23T04:15:28.932Z,0.0
2019-01-23T04:18:28.463Z,0.0
2019-01-23T04:21:29.323Z,0.0
2019-01-23T04:24:29.343Z,0.0
2019-01-23T04:27:28.661Z,0.0
2019-01-23T04:30:28.200Z,0.0
2019-01-23T04:33:28.886Z,0.0
2019-01-23T04:36:28.477Z,0.0
2019-01-23T04:39:29.008Z,0.0
2019-01-23T04:42:28.531Z,0.0
2019-01-23T04:45:29.157Z,0.0
2019-01-23T04:48:28.479Z,0.0
2019-01-23T04:51:53.366Z,0.0
2019-01-23T04:54:28.827Z,0.0
2019-01-23T04:57:28.393Z,0.0
2019-01-23T05:00:30.130Z,0.0
2019-01-23T05:03:28.557Z,0.0
2019-01-23T05:06:29.424Z,0.0
2019-01-23T05:09:29.147Z,0.0
2019-01-23T05:12:28.617Z,0.0
2019-01-23T05:15:28.175Z,0.0
2019-01-23T05:18:28.638Z,0.0
2019-01-23T05:21:29.408Z,0.0
2019-01-23T05:24:29.199Z,0.0
2019-01-23T05:27:28.458Z,0.0
2019-01-23T05:30:28.819Z,0.0
2019-01-23T05:33:28.285Z,0.0
2019-01-23T05:36:29.005Z,0.0
2019-01-23T05:39:28.747Z,0.0
2019-01-23T05:42:28.258Z,0.0
2019-01-23T05:45:28.862Z,0.0
2019-01-23T05:48:28.634Z,0.0
2019-01-23T05:51:28.140Z,0.0
2019-01-23T05:54:28.527Z,0.0
2019-01-23T05:57:29.177Z,0.0
2019-01-23T06:00:28.893Z,0.0
2019-01-23T06:03:28.404Z,0.0
2019-01-23T06:06:29.071Z,0.0
2019-01-23T06:09:28.760Z,0.0
2019-01-23T06:12:28.264Z,0.0
2019-01-23T06:15:29.277Z,0.0
2019-01-23T06:18:31.509Z,0.0
2019-01-23T06:21:28.085Z,0.0
2019-01-23T06:27:31.749Z,0.0
2019-01-23T06:30:29.323Z,0.0
2019-01-23T06:33:28.968Z,0.0
2019-01-23T06:36:48.091Z,0.0
2019-01-23T06:39:38.317Z,0.0
2019-01-23T06:42:34.093Z,0.0
2019-01-23T06:45:35.471Z,0.0
2019-01-23T06:48:35.192Z,0.0
2019-01-23T06:51:41.210Z,0.0
2019-01-23T06:54:44.246Z,0.0
2019-01-23T06:57:33.747Z,0.0
2019-01-23T07:02:42.045Z,0.0
2019-01-23T07:04:01.465Z,0.0
2019-01-23T07:07:07.761Z,0.0
2019-01-23T07:09:35.522Z,0.0
2019-01-23T07:12:34.939Z,0.01
2019-01-23T07:15:38.486Z,0.01
2019-01-23T07:18:32.900Z,0.01
2019-01-23T07:21:35.479Z,0.01
2019-01-23T07:24:41.261Z,0.01
2019-01-23T07:27:34.309Z,0.01
2019-01-23T07:30:53.105Z,0.02
2019-01-23T07:33:30.744Z,0.0
2019-01-23T07:36:37.467Z,0.03
2019-01-23T07:39:31.728Z,0.0
2019-01-23T07:42:33.731Z,0.0
2019-01-23T07:45:32.761Z,0.04
2019-01-23T07:48:28.416Z,0.04
2019-01-23T07:51:29.202Z,0.04
2019-01-23T07:54:28.507Z,0.04
2019-01-23T07:57:28.987Z,0.04
2019-01-23T08:00:31.460Z,0.05
2019-01-23T08:03:28.313Z,0.05
2019-01-23T08:06:28.985Z,0.05
2019-01-23T08:09:28.537Z,0.01
2019-01-23T08:12:29.140Z,0.01
2019-01-23T08:15:31.277Z,0.05
2019-01-23T08:18:28.882Z,0.06
2019-01-23T08:21:28.212Z,0.01
2019-01-23T08:24:30.524Z,0.01
2019-01-23T08:27:29.204Z,0.01
2019-01-23T08:30:29.002Z,0.06
2019-01-23T08:33:28.646Z,0.01
2019-01-23T08:36:28.091Z,0.06
2019-01-23T08:39:28.548Z,0.02
2019-01-23T08:42:28.948Z,0.07
2019-01-23T08:45:28.546Z,0.03
2019-01-23T08:48:27.924Z,0.08
2019-01-23T08:51:28.493Z,0.03
2019-01-23T08:54:28.031Z,0.03
2019-01-23T08:57:28.316Z,0.03
2019-01-23T09:00:28.688Z,0.07
2019-01-23T09:03:28.162Z,0.07
2019-01-23T09:06:28.689Z,0.03
2019-01-23T09:09:28.355Z,0.07
2019-01-23T09:12:28.861Z,0.03
2019-01-23T09:15:28.362Z,0.09
2019-01-23T09:18:28.865Z,0.09
2019-01-23T09:21:28.404Z,0.1
2019-01-23T09:24:28.783Z,0.05
2019-01-23T09:27:29.132Z,0.1
2019-01-23T09:30:33.134Z,0.11
2019-01-23T09:34:07.843Z,0.07
2019-01-23T09:38:46.949Z,0.1
2019-01-23T09:39:39.525Z,0.06
2019-01-23T09:42:53.624Z,0.06
2019-01-23T09:47:39.365Z,0.06
2019-01-23T09:48:36.539Z,0.11
2019-01-23T09:51:49.463Z,0.11
2019-01-23T09:54:28.949Z,0.12
2019-01-23T09:57:28.192Z,0.08
2019-01-23T10:00:31.883Z,0.09
2019-01-23T10:03:28.691Z,0.14
2019-01-23T10:06:28.210Z,0.14
2019-01-23T10:09:28.871Z,0.13
2019-01-23T10:12:28.900Z,0.12
2019-01-23T10:15:40.584Z,0.11
2019-01-23T10:18:28.229Z,0.06
2019-01-23T10:21:28.555Z,0.12
2019-01-23T10:24:35.709Z,0.12
2019-01-23T10:27:29.373Z,0.13
2019-01-23T10:30:29.244Z,0.14
2019-01-23T10:33:28.980Z,0.11
2019-01-23T10:36:29.112Z,0.17
2019-01-23T10:39:28.910Z,0.11
2019-01-23T10:42:29.019Z,0.1
2019-01-23T10:45:28.781Z,0.14
2019-01-23T10:48:28.377Z,0.09
2019-01-23T10:51:29.302Z,0.1
2019-01-23T10:54:33.818Z,0.11
2019-01-23T10:57:28.457Z,0.11
2019-01-23T11:00:28.429Z,0.11
2019-01-23T11:03:28.882Z,0.1
2019-01-23T11:06:28.554Z,0.1
2019-01-23T11:09:28.375Z,0.13
2019-01-23T11:12:29.001Z,0.1
2019-01-23T11:15:28.558Z,0.11
2019-01-23T11:18:28.137Z,0.13
2019-01-23T11:21:28.491Z,0.12
2019-01-23T11:24:27.877Z,0.12
2019-01-23T11:27:30.050Z,0.11
2019-01-23T11:30:28.821Z,0.06
2019-01-23T11:33:28.479Z,0.12
2019-01-23T11:36:29.038Z,0.12
2019-01-23T11:39:28.632Z,0.12
2019-01-23T11:42:28.248Z,0.07
2019-01-23T11:45:29.333Z,0.11
2019-01-23T11:48:28.892Z,0.1
2019-01-23T11:51:28.669Z,0.11
2019-01-23T11:54:28.348Z,0.13
2019-01-23T11:57:29.014Z,0.07
2019-01-23T12:00:30.356Z,0.07
2019-01-23T12:03:34.397Z,0.11
2019-01-23T12:06:28.836Z,0.07
2019-01-23T12:09:28.387Z,0.09
2019-01-23T12:12:28.901Z,0.15
2019-01-23T12:15:28.558Z,0.13
2019-01-23T12:18:28.208Z,0.08
2019-01-23T12:21:28.708Z,0.13
2019-01-23T12:24:28.751Z,0.08
2019-01-23T12:27:28.656Z,0.08
2019-01-23T12:30:31.227Z,0.13
2019-01-23T12:33:29.212Z,0.14
2019-01-23T12:36:28.857Z,0.12
2019-01-23T12:39:28.518Z,0.17
2019-01-23T12:42:29.081Z,0.11
2019-01-23T12:45:29.939Z,0.1
2019-01-23T12:48:28.573Z,0.12
2019-01-23T12:51:29.426Z,0.12
2019-01-23T12:54:29.147Z,0.13
2019-01-23T12:57:28.892Z,0.08
2019-01-23T13:00:30.707Z,0.08
2019-01-23T13:03:28.392Z,0.08
2019-01-23T13:06:29.078Z,0.11
2019-01-23T13:09:29.313Z,0.1
2019-01-23T13:12:57.494Z,0.09
2019-01-23T13:15:34.303Z,0.05
2019-01-23T13:18:28.853Z,0.09
2019-01-23T13:21:28.679Z,0.09
2019-01-23T13:24:28.303Z,0.09
2019-01-23T13:27:28.906Z,0.09
2019-01-23T13:30:28.907Z,0.03
2019-01-23T13:33:28.622Z,0.03
2019-01-23T13:36:28.170Z,0.08
2019-01-23T13:39:28.798Z,0.04
2019-01-23T13:42:28.334Z,0.08
2019-01-23T13:45:29.350Z,0.03
2019-01-23T13:48:29.008Z,0.07
2019-01-23T13:51:29.755Z,0.02
2019-01-23T13:54:28.224Z,0.02
2019-01-23T13:57:28.912Z,0.07
2019-01-23T14:00:32.052Z,0.07
2019-01-23T14:03:29.369Z,0.02
2019-01-23T14:06:29.167Z,0.03
2019-01-23T14:09:28.750Z,0.08
2019-01-23T14:12:28.397Z,0.03
2019-01-23T14:15:31.168Z,0.02
2019-01-23T14:18:29.623Z,0.03
2019-01-23T14:21:28.197Z,0.01
2019-01-23T14:24:28.772Z,0.06
2019-01-23T14:27:34.018Z,0.06
2019-01-23T14:30:31.963Z,0.01
2019-01-23T14:33:28.619Z,0.01
2019-01-23T14:36:28.202Z,0.01
2019-01-23T14:39:28.958Z,0.0
2019-01-23T14:42:28.605Z,0.05
2019-01-23T14:45:28.632Z,0.04
2019-01-23T14:48:28.602Z,0.04
2019-01-23T14:51:28.271Z,0.0
2019-01-23T14:54:28.943Z,0.0
2019-01-23T14:57:28.442Z,0.0
2019-01-23T15:00:29.738Z,0.0
2019-01-23T15:03:28.197Z,0.02
2019-01-23T15:06:29.022Z,0.02
2019-01-23T15:09:28.721Z,0.0
2019-01-23T15:12:28.347Z,0.0
2019-01-23T15:15:29.238Z,0.0
2019-01-23T15:18:29.109Z,0.02
2019-01-23T15:21:28.909Z,0.02
2019-01-23T15:24:28.560Z,0.0
2019-01-23T15:27:28.439Z,0.0
2019-01-23T15:30:29.751Z,0.01
2019-01-23T15:33:28.236Z,0.0
2019-01-23T15:36:28.856Z,0.0
2019-01-23T15:39:28.690Z,0.0
2019-01-23T15:42:28.245Z,0.0
2019-01-23T15:45:29.175Z,0.0
2019-01-23T15:48:28.831Z,0.01
2019-01-23T15:51:28.462Z,0.0
2019-01-23T15:54:29.101Z,0.01
2019-01-23T15:57:28.699Z,0.0
2019-01-23T16:00:30.472Z,0.0
2019-01-23T16:03:29.303Z,0.0
2019-01-23T16:06:29.827Z,0.0
2019-01-23T16:09:28.672Z,0.0
2019-01-23T16:12:28.376Z,0.0
2019-01-23T16:15:30.693Z,0.0
2019-01-23T16:18:28.493Z,0.0
2019-01-23T16:21:29.045Z,0.0
2019-01-23T16:24:28.487Z,0.0
2019-01-23T16:27:29.228Z,0.0
2019-01-23T16:30:35.103Z,0.0
2019-01-23T16:33:28.711Z,0.0
2019-01-23T16:36:28.407Z,0.0
2019-01-23T16:39:29.263Z,0.0
2019-01-23T16:42:29.015Z,0.0
2019-01-23T16:45:29.330Z,0.0
2019-01-23T16:48:29.071Z,0.0
2019-01-23T16:51:28.718Z,0.0
2019-01-23T16:54:28.209Z,0.0
2019-01-23T16:57:49.404Z,0.0
2019-01-23T17:00:31.810Z,0.0
2019-01-23T17:03:28.787Z,0.0
2019-01-23T17:06:28.466Z,0.0
2019-01-23T17:09:28.923Z,0.0
2019-01-23T17:12:28.480Z,0.0
2019-01-23T17:15:29.197Z,0.0
2019-01-23T17:18:28.707Z,0.0
2019-01-23T17:21:28.451Z,0.0
2019-01-23T17:24:29.778Z,0.0
2019-01-23T17:27:28.709Z,0.0
2019-01-23T17:30:29.118Z,0.0
2019-01-23T17:33:28.849Z,0.0
2019-01-23T17:36:33.703Z,0.0
2019-01-23T17:39:28.263Z,0.0
2019-01-23T17:42:28.862Z,0.0
2019-01-23T17:45:36.197Z,0.0
2019-01-23T17:48:29.058Z,0.0
2019-01-23T17:51:28.920Z,0.0
2019-01-23T17:54:28.754Z,0.0
2019-01-23T17:57:28.895Z,0.0
2019-01-23T18:00:30.945Z,0.0
2019-01-23T18:03:34.867Z,0.0
2019-01-23T18:06:28.680Z,0.0
2019-01-23T18:09:28.435Z,0.0
2019-01-23T18:12:29.159Z,0.0
2019-01-23T18:15:29.521Z,0.0
2019-01-23T18:18:29.694Z,0.0
2019-01-23T18:21:33.765Z,0.0
2019-01-23T18:24:28.539Z,0.0
2019-01-23T18:27:28.900Z,0.0
2019-01-23T18:30:50.699Z,0.0
2019-01-23T18:33:35.575Z,0.0
2019-01-23T18:36:56.104Z,0.0
2019-01-23T18:40:00.891Z,0.0
2019-01-23T18:43:20.047Z,0.0
2019-01-23T18:45:39.360Z,0.0
2019-01-23T18:50:37.937Z,0.0
2019-01-23T18:51:47.186Z,0.0
2019-01-23T18:54:29.237Z,0.0
2019-01-23T18:57:29.948Z,0.0
2019-01-23T19:00:29.054Z,0.0
2019-01-23T19:03:29.293Z,0.0
2019-01-23T19:06:46.488Z,0.0
2019-01-23T19:12:35.807Z,0.0
2019-01-23T19:15:28.846Z,0.0
2019-01-23T19:18:34.536Z,0.0
2019-01-23T19:21:28.557Z,0.0
2019-01-23T19:24:39.801Z,0.0
2019-01-23T19:27:34.547Z,0.0
2019-01-23T19:30:28.852Z,0.0
2019-01-23T19:33:28.917Z,0.0
2019-01-23T19:36:28.757Z,0.0
2019-01-23T19:39:28.502Z,0.0
2019-01-23T19:42:29.049Z,0.0
2019-01-23T19:45:28.632Z,0.0
2019-01-23T19:48:39.788Z,0.0
2019-01-23T19:51:32.551Z,0.0
2019-01-23T19:54:29.026Z,0.0
2019-01-23T19:57:28.683Z,0.0
2019-01-23T20:00:28.149Z,0.0
2019-01-23T20:03:34.090Z,0.0
2019-01-23T20:06:28.724Z,0.0
2019-01-23T20:09:28.304Z,0.0
2019-01-23T20:12:29.775Z,0.0
2019-01-23T20:15:28.263Z,0.0
2019-01-23T20:18:28.378Z,0.0
2019-01-23T20:21:29.035Z,0.0
2019-01-23T20:24:28.995Z,0.0
2019-01-23T20:27:28.646Z,0.0
2019-01-23T20:30:33.169Z,0.0
2019-01-23T20:33:28.761Z,0.0
2019-01-23T20:36:28.266Z,0.0
2019-01-23T20:39:28.776Z,0.0
2019-01-23T20:42:28.417Z,0.0
2019-01-23T20:45:29.040Z,0.0
2019-01-23T20:48:28.515Z,0.0
2019-01-23T20:51:28.104Z,0.0
2019-01-23T20:54:28.573Z,0.0
2019-01-23T20:57:29.206Z,0.0
2019-01-23T21:00:31.097Z,0.0
2019-01-23T21:03:34.636Z,0.0
2019-01-23T21:06:29.439Z,0.0
2019-01-23T21:09:28.186Z,0.0
2019-01-23T21:12:32.199Z,0.0
2019-01-23T21:15:31.218Z,0.0
2019-01-23T21:18:28.791Z,0.0
2019-01-23T21:21:28.654Z,0.0
2019-01-23T21:24:27.903Z,0.0
2019-01-23T21:27:28.918Z,0.0
2019-01-23T21:30:29.240Z,0.0
2019-01-23T21:33:28.827Z,0.0
2019-01-23T21:36:28.321Z,0.0
2019-01-23T21:39:28.839Z,0.0
2019-01-23T21:42:28.277Z,0.0
2019-01-23T21:45:28.861Z,0.0
2019-01-23T21:48:28.281Z,0.0
2019-01-23T21:51:28.843Z,0.0
2019-01-23T21:54:29.634Z,0.0
2019-01-23T21:57:28.700Z,0.0
2019-01-23T22:00:32.334Z,0.0
2019-01-23T22:03:29.124Z,0.0
2019-01-23T22:06:28.333Z,0.0
2019-01-23T22:09:28.607Z,0.0
2019-01-23T22:12:28.040Z,0.0
2019-01-23T22:15:28.998Z,0.0
2019-01-23T22:18:28.563Z,0.0
2019-01-23T22:21:29.142Z,0.0
2019-01-23T22:24:28.685Z,0.0
2019-01-23T22:27:28.007Z,0.0
2019-01-23T22:30:30.297Z,0.0
2019-01-23T22:33:28.920Z,0.0
2019-01-23T22:36:28.460Z,0.0
2019-01-23T22:39:29.002Z,0.0
2019-01-23T22:42:28.297Z,0.0
2019-01-23T22:45:30.449Z,0.0
2019-01-23T22:48:28.989Z,0.0
2019-01-23T22:51:28.657Z,0.0
2019-01-23T22:54:28.645Z,0.0
2019-01-23T22:57:28.522Z,0.0
2019-01-23T23:00:37.666Z,0.0
2019-01-23T23:03:28.402Z,0.0
2019-01-23T23:06:29.060Z,0.0
2019-01-23T23:09:29.053Z,0.0
2019-01-23T23:12:28.463Z,0.0
2019-01-23T23:15:29.405Z,0.0
2019-01-23T23:18:28.086Z,0.0
2019-01-23T23:21:28.732Z,0.0
2019-01-23T23:24:28.295Z,0.0
2019-01-23T23:27:29.215Z,0.0
2019-01-23T23:30:29.895Z,0.0
2019-01-23T23:33:28.526Z,0.0
2019-01-23T23:36:28.948Z,0.0
2019-01-23T23:39:28.551Z,0.0
2019-01-23T23:42:29.170Z,0.0
2019-01-23T23:45:29.445Z,0.0
2019-01-23T23:48:28.815Z,0.0
2019-01-23T23:51:28.092Z,0.0
2019-01-23T23:54:28.641Z,0.0
2019-01-23T23:57:27.852Z,0.0
